Time;durP1;ratioP1;P1;durP2;ratioP2;P2;SDS_P1;SDS_P2;PMS_P1;PMS_P2;Temp;Humidity;BMP_temperature;BMP_pressure;BME280_temperature;BME280_humidity;BME280_pressure;Samples;Min_cycle;Max_cycle;Signal;HPM_P1;HPM_P2
2023/08/27 00:04:01;;;;;;;4.37;2.90;;;;;;;19.60;77.39;98629.25;7256819;40;21152;31
2023/08/27 00:09:21;;;;;;;7.30;2.92;;;;;;;19.64;77.55;98642.22;7270893;40;20350;31
2023/08/27 00:14:56;;;;;;;3.97;2.90;;;;;;;19.46;77.29;98615.00;7308381;39;20682;31
2023/08/27 00:20:33;;;;;;;3.80;3.10;;;;;;;19.43;77.53;98614.59;7310626;39;20248;31
2023/08/27 00:25:54;;;;;;;5.57;3.20;;;;;;;19.52;76.76;98633.19;7309701;39;20510;31
2023/08/27 00:31:31;;;;;;;6.97;3.50;;;;;;;19.49;77.27;98622.69;7256543;40;20268;31
2023/08/27 00:37:04;;;;;;;7.80;3.80;;;;;;;19.45;78.00;98637.91;7239490;40;20956;31
2023/08/27 00:42:39;;;;;;;3.63;2.90;;;;;;;19.42;77.94;98645.75;7227907;40;20357;31
2023/08/27 00:48:15;;;;;;;6.07;3.10;;;;;;;19.45;78.50;98637.09;7227388;40;20242;31
2023/08/27 00:53:50;;;;;;;3.30;2.90;;;;;;;19.52;77.85;98622.25;7237647;40;20400;31
2023/08/27 01:04:33;;;;;;;4.50;3.10;;;;;;;19.39;79.23;98638.03;7278890;39;20288;31
2023/08/27 01:15:13;;;;;;;5.85;3.00;;;;;;;19.50;78.99;98613.44;7348128;39;21162;31
2023/08/27 01:20:48;;;;;;;6.40;3.10;;;;;;;19.46;78.89;98615.00;7380818;39;20243;31
2023/08/27 01:26:24;;;;;;;4.85;3.30;;;;;;;19.43;79.48;98620.94;7351885;39;20250;31
2023/08/27 01:32:02;;;;;;;5.93;3.07;;;;;;;19.37;79.76;98613.66;7301921;39;21085;31
2023/08/27 01:37:38;;;;;;;6.55;3.17;;;;;;;19.23;79.36;98579.41;7259668;40;20257;31
2023/08/27 01:43:14;;;;;;;4.87;2.53;;;;;;;19.20;80.05;98582.63;7250024;40;20372;31
2023/08/27 01:48:34;;;;;;;6.25;3.47;;;;;;;19.26;80.12;98581.69;7238570;40;20324;31
2023/08/27 01:54:09;;;;;;;5.18;3.80;;;;;;;18.95;79.82;98569.19;7236278;40;20343;31
2023/08/27 02:04:49;;;;;;;7.07;4.00;;;;;;;18.59;82.34;98558.44;7264373;40;21408;31
2023/08/27 02:10:26;;;;;;;4.85;3.90;;;;;;;18.61;82.02;98559.84;7251890;40;20269;31
2023/08/27 02:15:47;;;;;;;5.80;3.70;;;;;;;18.55;81.63;98581.81;7269036;40;20242;31
2023/08/27 02:21:24;;;;;;;9.07;3.47;;;;;;;18.71;81.51;98584.69;7322934;39;20340;31
2023/08/27 02:26:46;;;;;;;6.43;3.60;;;;;;;18.97;80.52;98582.59;7289031;39;20590;31
2023/08/27 02:32:08;;;;;;;6.55;3.30;;;;;;;18.98;79.87;98571.44;7323711;39;20239;31
2023/08/27 02:37:48;;;;;;;4.55;3.20;;;;;;;19.00;80.56;98558.38;7322345;39;20259;31
2023/08/27 02:43:23;;;;;;;6.90;2.90;;;;;;;18.84;81.08;98586.38;7311759;39;20256;31
2023/08/27 02:48:44;;;;;;;5.80;3.60;;;;;;;18.80;80.82;98574.28;7260494;40;20350;31
2023/08/27 02:54:19;;;;;;;8.65;3.60;;;;;;;18.90;80.62;98591.75;7236423;40;20246;31
2023/08/27 02:59:54;;;;;;;8.23;3.60;;;;;;;19.01;79.77;98592.81;7258667;40;20243;31
2023/08/27 03:05:14;;;;;;;6.03;3.42;;;;;;;19.00;80.60;98595.81;7297449;39;20407;31
2023/08/27 03:10:46;;;;;;;6.83;2.90;;;;;;;18.95;80.12;98573.81;7123293;39;20241;31
2023/08/27 03:16:05;;;;;;;5.90;3.40;;;;;;;19.06;79.88;98584.75;7312857;39;20333;31
2023/08/27 03:21:26;;;;;;;4.15;3.00;;;;;;;19.07;79.76;98569.19;7300088;39;20267;31
2023/08/27 03:27:00;;;;;;;4.60;3.00;;;;;;;18.91;80.81;98543.44;7324969;39;20418;31
2023/08/27 03:32:22;;;;;;;7.07;3.00;;;;;;;18.98;81.23;98556.97;7308304;39;20518;31
2023/08/27 03:37:43;;;;;;;6.10;3.20;;;;;;;19.04;80.30;98554.13;7326257;39;20279;31
2023/08/27 03:43:21;;;;;;;4.70;2.90;;;;;;;19.00;80.57;98541.97;7399544;39;20269;31
2023/08/27 03:48:41;;;;;;;3.90;3.03;;;;;;;19.02;80.14;98544.50;7338305;39;20286;31
2023/08/27 03:54:03;;;;;;;6.37;3.23;;;;;;;19.02;80.33;98544.50;7340231;39;20326;31
2023/08/27 03:59:39;;;;;;;5.33;3.50;;;;;;;18.85;80.73;98530.72;7332235;39;20260;31
2023/08/27 04:10:19;;;;;;;8.40;3.47;;;;;;;18.87;81.01;98523.94;7393941;39;21048;31
2023/08/27 04:15:55;;;;;;;5.90;2.95;;;;;;;18.88;80.29;98525.59;7229529;40;20234;31
2023/08/27 04:21:31;;;;;;;3.87;2.95;;;;;;;18.89;80.45;98540.09;7219150;40;20337;31
2023/08/27 04:26:52;;;;;;;4.30;3.07;;;;;;;18.82;80.43;98521.06;7295705;39;20946;31
2023/08/27 04:32:28;;;;;;;6.10;2.80;;;;;;;18.58;80.87;98521.28;7295365;39;20278;31
2023/08/27 04:37:49;;;;;;;5.63;2.70;;;;;;;18.69;80.90;98521.28;7269912;39;20345;31
2023/08/27 04:43:24;;;;;;;5.50;2.80;;;;;;;18.65;80.12;98511.91;7294946;39;20244;31
2023/08/27 04:49:00;;;;;;;3.92;2.80;;;;;;;18.59;80.82;98515.59;7234792;40;20241;31
2023/08/27 04:54:21;;;;;;;4.10;2.80;;;;;;;18.75;80.19;98538.63;7252019;39;20337;31
2023/08/27 04:59:55;;;;;;;3.90;3.07;;;;;;;18.68;81.73;98549.69;7236844;40;20246;31
2023/08/27 05:05:33;;;;;;;5.90;2.90;;;;;;;18.70;81.19;98542.06;7227819;40;20237;31
2023/08/27 05:10:55;;;;;;;5.50;3.00;;;;;;;18.72;80.75;98541.84;7290860;40;20230;31
2023/08/27 05:16:15;;;;;;;5.60;2.80;;;;;;;18.73;80.80;98529.87;7295628;39;20275;31
2023/08/27 05:21:48;;;;;;;5.67;2.63;;;;;;;18.74;80.43;98521.41;7277784;39;20267;31
2023/08/27 05:27:27;;;;;;;4.70;2.93;;;;;;;18.71;80.97;98530.09;7218654;40;20257;31
2023/08/27 05:32:48;;;;;;;9.25;3.00;;;;;;;18.79;80.14;98534.38;7270029;39;20268;31
2023/08/27 05:43:27;;;;;;;3.75;3.00;;;;;;;18.80;80.80;98493.19;7289701;39;20267;31
2023/08/27 05:54:04;;;;;;;6.40;3.70;;;;;;;18.80;81.30;98504.09;7340169;39;20424;31
2023/08/27 05:59:40;;;;;;;6.68;3.42;;;;;;;18.81;80.98;98497.59;7346819;39;20252;31
2023/08/27 06:05:01;;;;;;;5.60;3.40;;;;;;;18.80;81.47;98520.50;7325830;39;20282;31
2023/08/27 06:15:43;;;;;;;5.27;3.30;;;;;;;18.89;80.90;98534.62;7344916;39;21044;31
2023/08/27 06:21:17;;;;;;;7.47;3.10;;;;;;;18.90;80.69;98531.66;7340633;39;21008;31
2023/08/27 06:26:40;;;;;;;8.15;3.70;;;;;;;18.77;81.18;98531.06;7317997;39;20240;31
2023/08/27 06:32:17;;;;;;;6.72;3.10;;;;;;;18.76;82.03;98529.37;7320691;39;20349;31
2023/08/27 06:37:53;;;;;;;5.50;3.10;;;;;;;18.94;81.52;98531.19;7319187;39;20251;31
2023/08/27 06:43:28;;;;;;;4.47;2.97;;;;;;;19.09;80.87;98542.47;7322266;39;20248;31
2023/08/27 06:49:04;;;;;;;5.10;3.20;;;;;;;19.06;81.70;98551.13;7303074;39;20272;31
2023/08/27 06:54:24;;;;;;;3.70;3.07;;;;;;;19.06;81.66;98540.22;7316339;39;20318;31
2023/08/27 07:00:00;;;;;;;5.00;3.10;;;;;;;19.11;82.56;98532.16;7316747;39;20244;31
2023/08/27 07:05:31;;;;;;;6.30;3.10;;;;;;;19.25;81.33;98508.97;7295674;39;20252;31
2023/08/27 07:11:06;;;;;;;4.65;2.90;;;;;;;19.32;80.80;98520.59;7317465;39;20252;31
2023/08/27 07:16:41;;;;;;;3.80;2.70;;;;;;;19.31;80.93;98510.72;7237531;40;20400;31
2023/08/27 07:27:21;;;;;;;3.90;2.63;;;;;;;19.60;79.61;98506.22;7266164;39;21087;31
2023/08/27 07:38:00;;;;;;;3.40;2.43;;;;;;;19.88;78.33;98536.31;7310933;39;21076;31
2023/08/27 07:43:34;;;;;;;7.85;2.70;;;;;;;20.01;77.09;98548.91;7244313;40;20269;31
2023/08/27 07:54:14;;;;;;;3.40;2.60;;;;;;;20.13;77.15;98577.91;7255065;40;20280;31
2023/08/27 07:59:51;;;;;;;2.95;2.65;;;;;;;20.11;76.32;98565.50;7300933;39;20256;31
2023/08/27 08:05:11;;;;;;;5.23;2.50;;;;;;;20.18;77.22;98572.50;7281767;39;20244;31
2023/08/27 08:10:30;;;;;;;3.30;2.47;;;;;;;20.35;77.36;98583.56;7317266;39;21157;31
2023/08/27 08:16:06;;;;;;;6.17;2.53;;;;;;;20.27;75.68;98581.97;7281558;40;20292;31
2023/08/27 08:21:44;;;;;;;5.30;2.40;;;;;;;20.45;76.31;98588.38;7265898;40;20324;31
2023/08/27 08:27:13;;;;;;;3.10;1.97;;;;;;;20.49;76.07;98595.03;7245798;39;20331;31
2023/08/27 08:38:15;;;;;;;3.70;2.20;;;;;;;21.00;73.06;98613.22;7257500;40;20287;31
2023/08/27 08:49:22;;;;;;;6.57;2.10;;;;;;;21.16;70.55;98604.19;7363693;38;10003447;31
2023/08/27 08:54:55;;;;;;;3.80;1.90;;;;;;;21.28;70.26;98596.69;7491101;38;20252;31
2023/08/27 09:00:30;;;;;;;3.37;2.08;;;;;;;21.50;69.84;98575.66;7366425;39;20259;31
2023/08/27 09:11:13;;;;;;;2.75;2.10;;;;;;;21.70;69.12;98583.34;7346798;39;20267;31
2023/08/27 09:16:49;;;;;;;3.30;2.30;;;;;;;21.72;68.13;98588.59;7275260;39;20249;31
2023/08/27 09:22:25;;;;;;;4.05;1.83;;;;;;;21.81;68.40;98570.59;7288603;39;20256;31
2023/08/27 09:28:00;;;;;;;3.08;2.28;;;;;;;21.91;68.48;98537.81;7305752;39;20387;31
2023/08/27 09:33:19;;;;;;;2.65;1.95;;;;;;;22.33;66.40;98536.16;7311356;39;20234;31
2023/08/27 09:38:54;;;;;;;5.07;2.10;;;;;;;22.83;66.54;98522.06;7313288;39;20249;31
2023/08/27 09:44:31;;;;;;;2.95;2.10;;;;;;;22.97;64.07;98533.47;7320947;39;20765;31
2023/08/27 09:50:06;;;;;;;5.00;2.10;;;;;;;22.80;64.62;98552.00;7310994;39;20240;31
2023/08/27 09:55:38;;;;;;;2.75;2.00;;;;;;;22.94;64.14;98542.25;7231588;40;20502;31
2023/08/27 10:01:15;;;;;;;4.30;2.10;;;;;;;22.76;64.36;98540.72;7256883;40;20248;31
2023/08/27 10:06:50;;;;;;;3.47;2.03;;;;;;;22.82;64.30;98539.66;7219868;40;20258;31
2023/08/27 10:12:29;;;;;;;3.97;1.90;;;;;;;22.90;63.81;98541.09;7192987;40;20312;31
2023/08/27 10:18:05;;;;;;;2.30;1.90;;;;;;;22.71;63.46;98534.34;7221983;40;21187;31
2023/08/27 10:23:41;;;;;;;2.03;1.77;;;;;;;22.65;63.98;98538.91;7251152;40;20436;31
2023/08/27 10:29:19;;;;;;;2.60;1.94;;;;;;;22.49;62.88;98523.37;7217690;40;20242;31
2023/08/27 10:34:57;;;;;;;3.20;1.87;;;;;;;22.28;63.67;98527.03;7247963;40;20292;31
2023/08/27 10:40:32;;;;;;;2.65;1.90;;;;;;;22.27;64.21;98537.16;7248749;40;20238;31
2023/08/27 10:46:07;;;;;;;4.25;1.80;;;;;;;22.20;64.47;98544.78;7310003;39;20346;31
2023/08/27 10:51:43;;;;;;;5.28;1.80;;;;;;;22.03;64.12;98555.81;7348120;39;20285;31
2023/08/27 10:57:30;;;;;;;2.67;1.80;;;;;;;22.09;64.89;98542.16;7346543;39;20244;31
2023/08/27 11:03:11;;;;;;;2.40;1.83;;;;;;;22.09;64.23;98545.75;7372551;40;20252;31
2023/08/27 11:08:49;;;;;;;3.33;2.00;;;;;;;22.13;63.94;98555.13;7269117;39;20263;31
2023/08/27 11:14:27;;;;;;;4.10;2.03;;;;;;;22.23;62.73;98541.53;7258639;40;20346;31
2023/08/27 11:19:48;;;;;;;2.27;1.70;;;;;;;22.44;62.69;98537.06;7216558;40;20261;31
2023/08/27 11:25:23;;;;;;;2.60;1.70;;;;;;;22.42;62.53;98547.50;7259487;40;20416;31
2023/08/27 11:30:58;;;;;;;2.60;1.90;;;;;;;22.51;62.44;98540.41;7248407;40;20341;31
2023/08/27 11:36:20;;;;;;;2.70;1.80;;;;;;;22.54;61.38;98547.31;7288273;39;20241;31
2023/08/27 11:41:54;;;;;;;4.07;1.60;;;;;;;22.51;60.67;98553.34;7298981;39;20240;31
2023/08/27 11:47:15;;;;;;;3.10;1.60;;;;;;;22.62;60.46;98552.34;7302731;39;20286;31
2023/08/27 11:52:50;;;;;;;3.25;1.75;;;;;;;22.65;60.42;98549.06;7331307;39;20284;31
2023/08/27 11:58:11;;;;;;;4.30;1.60;;;;;;;22.70;60.75;98550.00;7344179;39;20255;31
2023/08/27 12:03:47;;;;;;;2.50;1.60;;;;;;;22.62;59.11;98552.34;7332444;39;20260;31
2023/08/27 12:09:07;;;;;;;2.17;1.60;;;;;;;22.63;59.99;98549.34;7320988;39;20251;31
2023/08/27 12:14:45;;;;;;;5.07;1.60;;;;;;;22.65;59.43;98544.41;7336073;39;20240;31
2023/08/27 12:20:21;;;;;;;1.65;1.50;;;;;;;22.55;58.77;98536.09;7310816;39;20244;31
2023/08/27 12:26:02;;;;;;;2.67;1.60;;;;;;;22.51;59.42;98539.63;7315671;39;20324;31
2023/08/27 12:31:38;;;;;;;2.90;1.85;;;;;;;22.47;60.04;98551.09;7287242;39;20461;31
2023/08/27 12:37:14;;;;;;;2.35;1.90;;;;;;;22.59;60.40;98545.47;7246955;40;20386;31
2023/08/27 12:42:34;;;;;;;2.90;1.80;;;;;;;22.58;60.71;98585.00;7219772;40;20242;31
2023/08/27 12:48:09;;;;;;;2.80;1.85;;;;;;;22.34;59.96;98595.44;7266240;39;20267;31
2023/08/27 12:53:45;;;;;;;2.55;1.75;;;;;;;22.02;60.03;98586.28;7234052;40;20849;31
2023/08/27 12:59:24;;;;;;;2.55;1.62;;;;;;;21.96;60.41;98590.03;7206684;40;20242;31
2023/08/27 13:04:43;;;;;;;1.77;1.50;;;;;;;21.96;60.62;98603.78;7202944;40;20257;31
2023/08/27 13:10:21;;;;;;;3.70;2.10;;;;;;;21.84;60.70;98603.03;7266715;40;20240;31
2023/08/27 13:15:58;;;;;;;2.53;1.60;;;;;;;21.78;61.55;98615.00;7286838;40;20256;31
2023/08/27 13:21:34;;;;;;;2.15;1.80;;;;;;;21.58;62.25;98605.44;7266026;40;20248;31
2023/08/27 13:32:15;;;;;;;3.97;1.73;;;;;;;21.76;62.65;98592.50;7335071;39;21177;31
2023/08/27 13:42:40;;;;;;;5.05;1.90;;;;;;;21.70;62.97;98571.56;7304535;39;20256;31
2023/08/27 13:48:16;;;;;;;4.03;1.70;;;;;;;21.80;62.89;98572.53;7338235;39;20299;31
2023/08/27 13:53:56;;;;;;;2.83;1.83;;;;;;;21.88;62.59;98549.31;7374214;39;20257;31
2023/08/27 13:59:17;;;;;;;3.12;2.00;;;;;;;21.92;61.88;98544.97;7361219;39;20247;31
2023/08/27 14:04:53;;;;;;;2.55;1.70;;;;;;;21.99;61.02;98562.91;7318156;39;20333;31
2023/08/27 14:10:28;;;;;;;2.75;1.50;;;;;;;22.14;60.81;98570.50;7319831;39;20255;31
2023/08/27 14:15:51;;;;;;;2.55;1.70;;;;;;;22.27;60.46;98561.06;7319010;39;20336;31
2023/08/27 14:21:26;;;;;;;2.95;1.60;;;;;;;22.34;60.84;98576.22;7283591;39;20383;31
2023/08/27 14:26:47;;;;;;;3.47;1.30;;;;;;;22.25;60.21;98577.78;7341065;39;20281;31
2023/08/27 14:32:07;;;;;;;2.45;1.77;;;;;;;22.19;60.74;98583.47;7340161;39;20256;31
2023/08/27 14:37:44;;;;;;;2.10;1.50;;;;;;;22.18;61.14;98588.12;7304695;39;20244;31
2023/08/27 14:43:19;;;;;;;3.54;1.78;;;;;;;22.12;60.87;98600.13;7316006;39;20283;31
2023/08/27 14:54:00;;;;;;;1.77;1.20;;;;;;;21.77;61.02;98603.19;7290367;39;20267;31
2023/08/27 15:04:40;;;;;;;1.90;1.23;;;;;;;21.82;60.17;98583.22;7352550;39;20252;31
2023/08/27 15:15:22;;;;;;;2.08;1.30;;;;;;;21.89;59.88;98572.91;7306043;39;21163;31
2023/08/27 15:26:01;;;;;;;3.60;1.70;;;;;;;21.96;60.48;98601.84;7361585;39;21015;31
2023/08/27 15:31:35;;;;;;;3.15;1.40;;;;;;;21.68;60.32;98587.41;7298202;39;20476;31
2023/08/27 15:36:53;;;;;;;3.78;1.50;;;;;;;21.70;60.17;98590.75;7072370;39;20237;31
2023/08/27 15:42:13;;;;;;;2.78;1.40;;;;;;;21.72;61.13;98583.91;7319626;39;20350;31
2023/08/27 15:47:50;;;;;;;1.82;1.36;;;;;;;21.67;60.53;98589.38;7333222;39;20236;31
2023/08/27 15:53:25;;;;;;;2.05;1.23;;;;;;;21.55;60.78;98589.44;7310099;39;20241;31
2023/08/27 15:59:00;;;;;;;1.80;1.30;;;;;;;21.51;59.89;98585.56;7327130;39;20259;31
2023/08/27 16:04:34;;;;;;;4.43;1.52;;;;;;;21.47;60.64;98589.06;7291048;39;20309;31
2023/08/27 16:10:09;;;;;;;2.42;1.50;;;;;;;21.61;60.64;98586.78;7247638;39;20404;31
2023/08/27 16:15:30;;;;;;;2.45;1.30;;;;;;;21.65;60.86;98596.16;7268678;39;20240;31
2023/08/27 16:21:06;;;;;;;2.18;1.40;;;;;;;21.47;60.69;98583.56;7280080;40;20256;31
2023/08/27 16:26:41;;;;;;;1.35;1.20;;;;;;;21.47;61.40;98591.78;7243798;40;20256;31
2023/08/27 16:32:16;;;;;;;2.10;1.40;;;;;;;21.38;60.88;98588.66;7243442;39;20241;31
2023/08/27 16:37:52;;;;;;;2.30;1.50;;;;;;;21.42;61.87;98610.91;7220186;40;20397;31
2023/08/27 16:43:27;;;;;;;2.05;1.45;;;;;;;21.28;62.04;98624.13;7199971;40;20839;31
2023/08/27 16:48:46;;;;;;;2.37;1.33;;;;;;;21.28;62.15;98626.88;7164742;40;20238;31
2023/08/27 16:54:21;;;;;;;2.30;1.35;;;;;;;21.24;61.76;98619.41;7237875;40;20374;31
2023/08/27 17:04:57;;;;;;;4.70;1.50;;;;;;;21.03;61.85;98627.25;7275785;39;20975;31
2023/08/27 17:10:29;;;;;;;3.75;2.12;;;;;;;21.03;62.17;98621.78;7283125;40;20371;31
2023/08/27 17:16:04;;;;;;;1.80;1.50;;;;;;;21.06;62.31;98606.75;7288283;39;20268;31
2023/08/27 17:26:40;;;;;;;1.55;1.30;;;;;;;20.95;62.49;98624.09;7314263;39;20370;31
2023/08/27 17:32:01;;;;;;;1.65;1.30;;;;;;;20.95;62.34;98622.19;7302445;39;20268;31
2023/08/27 17:37:21;;;;;;;3.35;1.85;;;;;;;20.88;63.24;98628.91;7355096;39;20338;31
2023/08/27 17:42:53;;;;;;;3.50;1.50;;;;;;;20.74;63.42;98630.28;7319405;39;20240;31
2023/08/27 17:48:20;;;;;;;2.70;1.40;;;;;;;20.71;62.24;98625.31;7338644;39;21096;31
2023/08/27 17:53:41;;;;;;;1.70;1.30;;;;;;;20.70;62.99;98629.94;7323858;39;20416;31
2023/08/27 18:04:25;;;;;;;2.25;1.42;;;;;;;20.61;63.42;98629.50;7358187;39;21099;31
2023/08/27 18:09:59;;;;;;;2.08;1.56;;;;;;;20.65;63.37;98644.37;7319848;39;20326;31
2023/08/27 18:15:16;;;;;;;2.12;1.52;;;;;;;20.61;63.20;98643.22;7286788;39;21092;31
2023/08/27 18:25:57;;;;;;;2.05;1.30;;;;;;;20.61;65.03;98656.06;7322092;39;21106;31
2023/08/27 18:36:19;;;;;;;2.50;1.57;;;;;;;20.55;64.67;98676.19;7300487;39;21003;31
2023/08/27 18:41:56;;;;;;;3.20;1.30;;;;;;;20.47;63.95;98679.31;7340203;39;20240;31
2023/08/27 18:47:16;;;;;;;2.90;1.70;;;;;;;20.48;64.27;98691.94;7336471;39;20252;31
2023/08/27 18:52:36;;;;;;;2.37;1.42;;;;;;;20.44;64.54;98708.03;7299511;39;20357;31
2023/08/27 18:58:13;;;;;;;3.40;1.50;;;;;;;20.36;64.61;98726.75;7304957;39;20370;31
2023/08/27 19:08:35;;;;;;;2.08;1.52;;;;;;;20.29;64.22;98731.47;7301048;40;21105;31
2023/08/27 19:14:09;;;;;;;3.05;1.50;;;;;;;20.16;65.00;98729.81;7301538;39;20244;31
2023/08/27 19:19:44;;;;;;;1.80;1.35;;;;;;;20.20;65.34;98741.97;7288108;40;20241;31
2023/08/27 19:25:05;;;;;;;3.85;1.60;;;;;;;20.20;65.45;98739.22;7239569;40;20334;31
2023/08/27 19:30:40;;;;;;;3.23;1.50;;;;;;;20.15;65.99;98739.94;7299679;40;20299;31
2023/08/27 19:36:18;;;;;;;3.10;1.60;;;;;;;20.09;65.92;98749.13;7231406;40;20249;31
2023/08/27 19:41:53;;;;;;;2.53;1.57;;;;;;;20.06;64.71;98751.47;7252568;40;20268;31
2023/08/27 19:47:27;;;;;;;5.30;1.85;;;;;;;20.08;65.94;98752.09;7217852;40;20245;31
2023/08/27 19:58:08;;;;;;;3.40;1.60;;;;;;;19.71;67.04;98760.50;7229043;40;20338;31
2023/08/27 20:03:46;;;;;;;1.73;1.30;;;;;;;19.62;67.20;98761.09;7291938;39;20358;31
2023/08/27 20:09:21;;;;;;;1.90;1.40;;;;;;;19.58;67.62;98768.94;7329809;39;20278;31
2023/08/27 20:14:41;;;;;;;3.25;1.60;;;;;;;19.64;66.58;98787.13;7319915;39;20361;31
2023/08/27 20:20:21;;;;;;;2.65;1.60;;;;;;;19.52;66.37;98782.72;7302768;39;20245;31
2023/08/27 20:31:19;;;;;;;2.40;1.40;;;;;;;19.49;63.28;98784.00;7275029;39;20367;31
2023/08/27 20:36:52;;;;;;;1.62;1.25;;;;;;;19.48;64.27;98787.81;7311080;39;20310;31
2023/08/27 20:42:15;;;;;;;2.56;1.50;;;;;;;19.50;62.83;98803.97;7293851;39;20363;31
2023/08/27 20:53:14;;;;;;;2.00;1.40;;;;;;;19.40;62.63;98792.72;7324655;39;20374;31
2023/08/27 20:58:30;;;;;;;1.90;1.37;;;;;;;19.39;63.00;98797.41;7317401;39;20247;31
2023/08/27 21:03:54;;;;;;;1.50;1.20;;;;;;;19.32;62.72;98792.00;7350302;39;20255;31
2023/08/27 21:09:28;;;;;;;1.43;1.23;;;;;;;19.31;63.05;98793.06;7357748;39;20806;31
2023/08/27 21:14:48;;;;;;;5.40;1.50;;;;;;;19.32;63.04;98797.47;7297430;39;20746;31
2023/08/27 21:20:10;;;;;;;2.70;1.27;;;;;;;19.33;63.09;98806.50;7253213;40;20265;31
2023/08/27 21:30:53;;;;;;;2.00;1.23;;;;;;;19.28;62.72;98804.47;7338995;39;20269;31
2023/08/27 21:36:28;;;;;;;2.60;1.40;;;;;;;19.13;64.60;98805.97;7359244;39;20258;31
2023/08/27 21:41:48;;;;;;;3.37;1.40;;;;;;;18.94;64.79;98805.16;7318962;39;20240;31
2023/08/27 21:47:31;;;;;;;2.90;1.30;;;;;;;18.87;65.55;98793.47;7218446;39;20302;31
2023/08/27 21:53:06;;;;;;;3.50;1.50;;;;;;;18.78;65.56;98795.69;7314214;39;20250;31
2023/08/27 22:03:50;;;;;;;1.80;1.30;;;;;;;18.49;65.64;98799.16;7322261;39;20272;31
2023/08/27 22:09:11;;;;;;;2.10;1.30;;;;;;;18.54;65.65;98799.34;7316316;39;20284;31
2023/08/27 22:14:45;;;;;;;2.45;1.60;;;;;;;18.52;65.78;98795.97;7346653;39;20239;31
2023/08/27 22:20:21;;;;;;;2.58;1.30;;;;;;;18.36;66.03;98808.31;7317188;39;20347;31
2023/08/27 22:26:00;;;;;;;2.70;1.37;;;;;;;18.34;66.26;98809.63;7268411;39;21730;31
2023/08/27 22:31:17;;;;;;;3.53;1.40;;;;;;;18.26;66.24;98818.06;7316584;39;20344;31
2023/08/27 22:37:00;;;;;;;2.20;1.40;;;;;;;18.16;67.16;98810.44;7266307;40;20251;31
2023/08/27 22:42:21;;;;;;;2.35;1.50;;;;;;;17.99;67.53;98823.78;7063417;39;20272;31
2023/08/27 22:48:00;;;;;;;2.90;1.60;;;;;;;17.69;69.03;98827.41;7306374;39;20314;31
2023/08/27 22:53:36;;;;;;;2.13;1.40;;;;;;;17.57;69.93;98828.09;7325783;39;20255;31
2023/08/27 22:58:57;;;;;;;1.97;1.60;;;;;;;17.55;69.99;98832.91;7306157;39;20342;31
2023/08/27 23:04:18;;;;;;;2.50;1.60;;;;;;;17.75;69.88;98832.81;7302108;39;20335;31
2023/08/27 23:09:54;;;;;;;5.93;1.70;;;;;;;17.65;70.40;98827.00;7306872;39;20241;31
2023/08/27 23:15:15;;;;;;;2.70;1.60;;;;;;;17.71;70.03;98837.03;7308032;39;20241;31
2023/08/27 23:20:51;;;;;;;2.30;1.63;;;;;;;17.60;69.46;98824.09;7330869;39;20253;31
2023/08/27 23:26:27;;;;;;;2.80;1.63;;;;;;;17.36;70.71;98824.88;7324703;39;20367;31
2023/08/27 23:31:58;;;;;;;3.30;1.70;;;;;;;17.42;70.47;98818.56;7304924;39;20248;31
2023/08/27 23:42:38;;;;;;;4.78;2.50;;;;;;;17.18;71.13;98805.72;7265035;40;21430;31
2023/08/27 23:53:18;;;;;;;2.78;1.80;;;;;;;17.18;71.46;98803.81;7266314;39;20264;31
2023/08/27 23:58:54;;;;;;;2.45;1.70;;;;;;;17.26;71.04;98794.53;7321561;39;20244;31
